Time;durP1;ratioP1;P1;durP2;ratioP2;P2;SDS_P1;SDS_P2;PMS_P1;PMS_P2;Temp;Humidity;BMP_temperature;BMP_pressure;BME280_temperature;BME280_humidity;BME280_pressure;Samples;Min_cycle;Max_cycle;Signal;HPM_P1;HPM_P2
2021/03/30 00:00:57;;;;;;;10.75;6.17;;;7.90;59.50;;;;;;1749048;82;21694;-80
2021/03/30 00:03:25;;;;;;;11.53;6.15;;;8.00;59.00;;;;;;1748505;81;21126;-79
2021/03/30 00:05:53;;;;;;;13.70;5.92;;;8.10;58.90;;;;;;1748451;81;21605;-80
2021/03/30 00:08:21;;;;;;;12.05;5.97;;;8.10;60.00;;;;;;1748954;82;21304;-81
2021/03/30 00:10:49;;;;;;;11.50;5.97;;;8.00;61.80;;;;;;1748567;82;21142;-80
2021/03/30 00:13:17;;;;;;;11.73;5.78;;;7.90;59.60;;;;;;1748575;81;21153;-80
2021/03/30 00:15:46;;;;;;;11.90;5.72;;;7.90;61.30;;;;;;1748490;82;21171;-79
2021/03/30 00:18:14;;;;;;;9.78;5.62;;;7.90;60.10;;;;;;1762472;81;21165;-80
2021/03/30 00:20:42;;;;;;;11.22;5.62;;;7.90;61.00;;;;;;1765128;81;21165;-80
2021/03/30 00:23:10;;;;;;;12.58;6.03;;;7.90;60.40;;;;;;1764810;81;21300;-79
2021/03/30 00:25:38;;;;;;;11.35;5.75;;;7.90;59.30;;;;;;1764986;81;21154;-79
2021/03/30 00:28:07;;;;;;;10.63;6.35;;;8.00;59.80;;;;;;1764478;81;21292;-78
2021/03/30 00:30:35;;;;;;;10.05;5.37;;;8.00;58.90;;;;;;1765003;81;21162;-79
2021/03/30 00:33:03;;;;;;;13.05;5.75;;;8.10;58.80;;;;;;1764895;81;21320;-79
2021/03/30 00:35:31;;;;;;;10.90;5.00;;;8.10;58.70;;;;;;1764962;81;21157;-80
2021/03/30 00:37:59;;;;;;;16.20;5.67;;;8.10;59.20;;;;;;1764464;81;21158;-79
2021/03/30 00:40:26;;;;;;;9.50;5.12;;;8.10;59.40;;;;;;1764708;80;21186;-79
2021/03/30 00:42:55;;;;;;;8.45;4.70;;;8.10;59.20;;;;;;1764670;81;21149;-79
2021/03/30 00:45:23;;;;;;;11.53;5.17;;;8.10;61.30;;;;;;1764576;81;21704;-78
2021/03/30 00:47:51;;;;;;;9.50;4.72;;;8.10;61.60;;;;;;1764669;81;21126;-79
2021/03/30 00:50:24;;;;;;;11.08;5.10;;;8.00;62.30;;;;;;1764782;80;21149;-81
2021/03/30 00:52:53;;;;;;;9.15;5.00;;;8.00;61.00;;;;;;1764735;81;21162;-80
2021/03/30 00:55:40;;;;;;;9.98;5.25;;;8.00;61.20;;;;;;1764816;81;21141;-81
2021/03/30 00:58:08;;;;;;;7.97;4.25;;;8.00;61.90;;;;;;1764436;81;21182;-80
2021/03/30 01:00:36;;;;;;;10.58;4.92;;;7.90;62.80;;;;;;1764675;81;21303;-80
2021/03/30 01:03:07;;;;;;;10.03;5.20;;;8.00;62.50;;;;;;1764602;80;21452;-79
2021/03/30 01:05:34;;;;;;;8.33;4.80;;;7.90;62.10;;;;;;1764872;81;21309;-80
2021/03/30 01:08:23;;;;;;;10.80;4.80;;;8.00;62.20;;;;;;1764473;80;21170;-79
2021/03/30 01:11:21;;;;;;;10.88;5.53;;;7.90;61.70;;;;;;1764911;81;21709;-79
2021/03/30 01:13:52;;;;;;;;;;;7.90;61.30;;;;;;1767098;81;21576;-79
2021/03/30 01:16:37;;;;;;;8.95;4.53;;;7.80;62.90;;;;;;1764601;81;20145;-79
2021/03/30 01:19:19;;;;;;;10.00;5.22;;;7.70;63.60;;;;;;1758823;81;21161;-82
2021/03/30 01:22:25;;;;;;;9.60;5.15;;;7.70;63.60;;;;;;1762912;81;21174;-81
2021/03/30 01:25:01;;;;;;;10.10;4.90;;;7.60;63.40;;;;;;1762026;80;21635;-80
2021/03/30 01:27:52;;;;;;;14.65;5.33;;;7.60;63.30;;;;;;1764504;81;21177;-78
2021/03/30 01:30:22;;;;;;;10.85;5.05;;;7.60;62.80;;;;;;1764526;81;21169;-79
2021/03/30 01:33:00;;;;;;;10.28;4.90;;;7.70;63.30;;;;;;1764726;80;21327;-79
2021/03/30 01:35:30;;;;;;;8.98;5.28;;;7.70;63.80;;;;;;1763551;81;21739;-78
2021/03/30 01:37:59;;;;;;;13.32;4.95;;;7.60;65.20;;;;;;1764444;81;21166;-77
2021/03/30 01:40:32;;;;;;;12.18;5.17;;;7.60;65.90;;;;;;1764569;80;21164;-78
2021/03/30 01:43:04;;;;;;;10.05;4.90;;;7.70;65.40;;;;;;1764664;81;21677;-78
2021/03/30 01:45:34;;;;;;;9.83;4.87;;;7.60;65.40;;;;;;1765061;81;21154;-78
2021/03/30 01:48:03;;;;;;;8.68;5.37;;;7.60;65.10;;;;;;1764685;81;21565;-78
2021/03/30 01:50:34;;;;;;;8.70;5.35;;;7.60;63.60;;;;;;1764944;81;21153;-78
2021/03/30 01:53:04;;;;;;;9.78;5.15;;;7.50;64.50;;;;;;1764587;81;21296;-78
2021/03/30 01:55:34;;;;;;;9.50;4.95;;;7.50;63.30;;;;;;1764645;80;21303;-78
2021/03/30 01:58:04;;;;;;;8.83;4.90;;;7.50;64.60;;;;;;1764444;81;21154;-78
2021/03/30 02:00:37;;;;;;;11.25;4.83;;;7.50;63.30;;;;;;1764455;81;21162;-78
2021/03/30 02:03:07;;;;;;;8.40;4.80;;;7.50;65.20;;;;;;1764497;81;21161;-78
2021/03/30 02:05:35;;;;;;;8.30;4.72;;;7.50;65.40;;;;;;1764552;80;21324;-77
2021/03/30 02:08:06;;;;;;;9.10;4.80;;;7.50;65.60;;;;;;1764461;81;21149;-77
2021/03/30 02:10:47;;;;;;;10.08;4.80;;;7.40;65.60;;;;;;1764572;81;21142;-77
2021/03/30 02:13:31;;;;;;;8.33;5.12;;;7.50;65.60;;;;;;1764583;81;21284;-77
2021/03/30 02:16:00;;;;;;;9.65;5.00;;;7.60;64.90;;;;;;1763332;81;21178;-77
2021/03/30 02:18:36;;;;;;;9.17;5.50;;;7.60;64.50;;;;;;1764687;80;21569;-78
2021/03/30 02:21:07;;;;;;;9.58;4.62;;;7.50;64.70;;;;;;1764483;81;21268;-79
2021/03/30 02:23:41;;;;;;;9.93;4.97;;;7.60;65.00;;;;;;1764814;81;21687;-79
2021/03/30 02:26:11;;;;;;;9.48;5.60;;;7.50;64.70;;;;;;1764722;81;21580;-79
2021/03/30 02:28:54;;;;;;;10.53;5.30;;;7.50;65.80;;;;;;1749415;81;21165;-79
2021/03/30 02:31:23;;;;;;;10.93;5.20;;;7.50;66.20;;;;;;1727006;83;21190;-78
2021/03/30 02:33:55;;;;;;;8.38;4.80;;;7.50;65.80;;;;;;1728001;83;21142;-77
2021/03/30 02:36:27;;;;;;;9.80;5.20;;;7.50;65.30;;;;;;1728493;83;21115;-77
2021/03/30 02:39:00;;;;;;;11.35;5.47;;;7.50;64.80;;;;;;1727974;83;21593;-78
2021/03/30 02:41:30;;;;;;;9.58;4.53;;;7.50;66.10;;;;;;1727317;83;21196;-79
2021/03/30 02:44:01;;;;;;;8.43;4.60;;;7.50;65.10;;;;;;1728145;82;21159;-79
2021/03/30 02:46:32;;;;;;;9.10;4.95;;;7.50;65.40;;;;;;1727988;83;21159;-79
2021/03/30 02:49:01;;;;;;;8.25;4.90;;;7.40;65.00;;;;;;1728239;83;21597;-79
2021/03/30 02:51:33;;;;;;;9.80;4.80;;;7.50;66.50;;;;;;1728232;82;21127;-79
2021/03/30 02:54:03;;;;;;;12.78;4.92;;;7.40;68.30;;;;;;1728157;83;21142;-78
2021/03/30 02:56:32;;;;;;;11.33;5.00;;;7.50;67.40;;;;;;1728304;83;21166;-78
2021/03/30 02:59:00;;;;;;;10.58;5.30;;;7.60;67.30;;;;;;1728352;83;21187;-78
2021/03/30 03:01:28;;;;;;;8.15;4.45;;;7.60;66.90;;;;;;1728393;83;21169;-78
2021/03/30 03:03:56;;;;;;;9.90;4.50;;;7.70;68.10;;;;;;1728245;83;21159;-78
2021/03/30 03:06:23;;;;;;;13.03;5.37;;;7.70;67.50;;;;;;1728204;82;21178;-77
2021/03/30 03:08:53;;;;;;;12.37;5.58;;;7.70;67.10;;;;;;1728290;83;21637;-79
2021/03/30 03:11:22;;;;;;;12.07;6.40;;;7.70;67.70;;;;;;1728286;83;21584;-79
2021/03/30 03:13:52;;;;;;;9.88;5.53;;;7.60;67.50;;;;;;1728549;83;21177;-79
2021/03/30 03:16:22;;;;;;;10.08;5.33;;;7.60;68.10;;;;;;1728095;83;21183;-79
2021/03/30 03:18:52;;;;;;;11.28;5.17;;;7.60;67.10;;;;;;1715342;82;21186;-79
2021/03/30 03:21:26;;;;;;;10.72;5.35;;;7.50;67.30;;;;;;1711046;83;21150;-79
2021/03/30 03:23:54;;;;;;;12.78;5.95;;;7.60;67.30;;;;;;1711530;84;21564;-79
2021/03/30 03:26:22;;;;;;;9.38;5.40;;;7.60;67.70;;;;;;1711019;83;21169;-79
2021/03/30 03:28:50;;;;;;;11.55;6.00;;;7.60;67.30;;;;;;1710929;83;21187;-79
2021/03/30 03:31:23;;;;;;;15.28;6.78;;;7.50;67.10;;;;;;1711060;82;21162;-79
2021/03/30 03:33:51;;;;;;;17.05;7.12;;;7.50;67.40;;;;;;1710957;83;21150;-79
2021/03/30 03:36:19;;;;;;;15.98;6.58;;;7.50;67.70;;;;;;1710912;83;21169;-80
2021/03/30 03:38:47;;;;;;;13.08;6.70;;;7.50;67.90;;;;;;1710961;83;21182;-80
2021/03/30 03:41:16;;;;;;;14.83;6.17;;;7.40;67.90;;;;;;1711010;84;21186;-80
2021/03/30 03:43:44;;;;;;;15.65;5.87;;;7.50;68.10;;;;;;1711295;84;21177;-80
2021/03/30 03:46:16;;;;;;;13.60;6.33;;;7.50;67.90;;;;;;1710909;83;21135;-80
2021/03/30 03:48:45;;;;;;;14.55;6.12;;;7.50;68.30;;;;;;1711053;83;21122;-80
2021/03/30 03:51:17;;;;;;;18.27;6.05;;;7.40;68.60;;;;;;1711061;83;21162;-81
2021/03/30 03:53:49;;;;;;;15.43;6.10;;;7.40;68.40;;;;;;1711005;83;21158;-83
2021/03/30 03:56:31;;;;;;;16.10;6.67;;;7.40;68.30;;;;;;1711295;83;21293;-81
2021/03/30 03:59:10;;;;;;;15.53;6.33;;;7.50;68.50;;;;;;1710792;83;21181;-80
2021/03/30 04:01:55;;;;;;;12.43;6.85;;;7.40;68.60;;;;;;1711076;84;21155;-78
2021/03/30 04:04:33;;;;;;;19.12;7.58;;;7.40;68.50;;;;;;1710913;83;21158;-79
2021/03/30 04:07:05;;;;;;;16.62;8.30;;;7.30;68.90;;;;;;1710630;84;21158;-78
2021/03/30 04:09:36;;;;;;;15.23;7.65;;;7.40;68.90;;;;;;1711386;83;21149;-79
2021/03/30 04:12:07;;;;;;;18.10;8.55;;;7.40;68.70;;;;;;1710899;83;21142;-78
2021/03/30 04:14:35;;;;;;;14.33;7.92;;;7.40;68.80;;;;;;1710890;84;21150;-79
2021/03/30 04:17:04;;;;;;;17.45;8.68;;;7.40;68.50;;;;;;1711260;83;21130;-79
2021/03/30 04:19:40;;;;;;;21.70;9.18;;;7.30;69.40;;;;;;1710842;82;21184;-78
2021/03/30 04:22:09;;;;;;;19.32;8.48;;;7.30;70.20;;;;;;1711119;83;21115;-77
2021/03/30 04:24:37;;;;;;;17.52;9.40;;;7.30;69.80;;;;;;1710874;83;21623;-79
2021/03/30 04:27:12;;;;;;;16.93;8.48;;;7.40;69.60;;;;;;1710955;83;21154;-79
2021/03/30 04:29:42;;;;;;;23.20;9.73;;;7.30;69.50;;;;;;1710905;83;21600;-79
2021/03/30 04:32:10;;;;;;;21.77;9.45;;;7.30;69.30;;;;;;1711078;83;21150;-79
2021/03/30 04:34:37;;;;;;;25.43;9.35;;;7.30;70.00;;;;;;1711417;84;21308;-79
2021/03/30 04:37:05;;;;;;;22.07;10.40;;;7.40;70.20;;;;;;1710901;83;21158;-77
2021/03/30 04:39:33;;;;;;;24.23;10.93;;;7.50;70.50;;;;;;1710851;83;21171;-79
2021/03/30 04:42:00;;;;;;;22.87;9.13;;;7.50;69.80;;;;;;1696745;84;21166;-78
2021/03/30 04:44:28;;;;;;;19.85;8.18;;;7.50;69.20;;;;;;1710862;84;21174;-83
2021/03/30 04:46:55;;;;;;;18.23;7.62;;;7.50;69.50;;;;;;1711516;83;21157;-80
2021/03/30 04:49:22;;;;;;;16.55;8.18;;;7.50;69.40;;;;;;1711064;83;21130;-80
2021/03/30 04:51:50;;;;;;;16.45;7.12;;;7.60;68.90;;;;;;1710960;83;21158;-80
2021/03/30 04:54:18;;;;;;;16.40;7.80;;;7.60;69.10;;;;;;1710959;83;21170;-80
2021/03/30 04:56:46;;;;;;;14.28;7.58;;;7.70;68.80;;;;;;1696793;84;21336;-80
2021/03/30 04:59:14;;;;;;;17.27;7.15;;;7.70;68.00;;;;;;1710996;84;21601;-80
2021/03/30 05:01:42;;;;;;;16.17;7.42;;;7.80;68.20;;;;;;1711016;83;21150;-80
2021/03/30 05:04:09;;;;;;;19.57;7.47;;;7.80;68.40;;;;;;1716284;82;21147;-79
2021/03/30 05:06:37;;;;;;;16.25;7.67;;;8.00;68.10;;;;;;1712475;84;21187;-80
2021/03/30 05:09:06;;;;;;;22.25;8.68;;;8.20;67.60;;;;;;1735415;82;21128;-81
2021/03/30 05:11:34;;;;;;;18.77;8.73;;;8.30;66.80;;;;;;1741730;82;21286;-79
2021/03/30 05:14:03;;;;;;;22.42;9.60;;;8.30;66.70;;;;;;1741811;82;21132;-80
2021/03/30 05:16:30;;;;;;;22.35;10.60;;;8.30;66.10;;;;;;1742342;82;21152;-80
2021/03/30 05:18:58;;;;;;;30.70;11.15;;;8.30;66.10;;;;;;1739954;82;21187;-80
2021/03/30 05:21:26;;;;;;;28.25;11.80;;;8.40;66.10;;;;;;1738759;82;21294;-80
2021/03/30 05:23:54;;;;;;;25.48;10.95;;;8.40;66.40;;;;;;1738698;82;21139;-81
2021/03/30 05:26:22;;;;;;;26.55;11.90;;;8.40;66.70;;;;;;1739075;82;21316;-81
2021/03/30 05:28:49;;;;;;;28.32;11.93;;;8.40;66.80;;;;;;1738860;82;21128;-80
2021/03/30 05:31:19;;;;;;;35.17;11.93;;;8.40;66.50;;;;;;1709692;82;21206;-81
2021/03/30 05:33:47;;;;;;;34.45;13.58;;;8.50;66.40;;;;;;1738662;81;21331;-81
2021/03/30 05:36:15;;;;;;;33.25;12.98;;;8.50;66.10;;;;;;1738644;81;21186;-81
2021/03/30 05:38:42;;;;;;;29.80;12.50;;;8.50;66.20;;;;;;1738253;82;21150;-80
2021/03/30 05:41:11;;;;;;;31.77;12.37;;;8.70;66.00;;;;;;1738423;82;21157;-81
2021/03/30 05:43:41;;;;;;;30.20;12.00;;;8.80;65.30;;;;;;1738338;82;21157;-82
2021/03/30 05:46:09;;;;;;;29.65;11.93;;;9.00;64.60;;;;;;1738413;81;21127;-81
2021/03/30 05:48:41;;;;;;;29.42;12.73;;;9.00;63.80;;;;;;1738486;82;21690;-82
2021/03/30 05:51:08;;;;;;;36.42;14.07;;;9.10;63.90;;;;;;1738276;82;21319;-80
2021/03/30 05:53:39;;;;;;;31.87;13.95;;;9.20;64.30;;;;;;1738551;82;21149;-80
2021/03/30 05:56:08;;;;;;;30.02;13.38;;;9.20;63.90;;;;;;1738340;82;21165;-80
2021/03/30 05:58:40;;;;;;;27.15;12.73;;;9.20;63.50;;;;;;1738219;81;21193;-80
2021/03/30 06:01:12;;;;;;;26.40;13.38;;;9.30;62.80;;;;;;1709757;84;21160;-79
2021/03/30 06:03:41;;;;;;;31.57;13.38;;;9.30;62.10;;;;;;1736521;82;21146;-80
2021/03/30 06:06:10;;;;;;;27.32;12.88;;;9.30;62.20;;;;;;1738468;82;21252;-77
2021/03/30 06:08:40;;;;;;;32.78;13.15;;;9.40;62.30;;;;;;1734363;82;21608;-76
2021/03/30 06:11:11;;;;;;;25.57;12.23;;;9.50;61.80;;;;;;1738451;81;21142;-80
2021/03/30 06:13:57;;;;;;;33.85;13.80;;;9.60;61.80;;;;;;1738380;82;21182;-80
2021/03/30 06:16:34;;;;;;;25.12;12.47;;;9.60;62.00;;;;;;1737192;82;21703;-81
2021/03/30 06:19:18;;;;;;;31.52;12.75;;;9.70;61.90;;;;;;1730337;81;21185;-78
2021/03/30 06:22:00;;;;;;;28.80;12.53;;;9.80;61.20;;;;;;1722884;83;21545;-82
2021/03/30 06:24:32;;;;;;;32.65;12.65;;;9.80;60.20;;;;;;1724100;83;21155;-82
2021/03/30 06:27:13;;;;;;;29.72;12.58;;;9.80;59.80;;;;;;1725030;83;21561;-84
2021/03/30 06:29:43;;;;;;;29.72;12.28;;;9.90;59.90;;;;;;1723109;83;21139;-84
2021/03/30 06:32:22;;;;;;;26.33;11.65;;;10.00;58.90;;;;;;1724890;83;21151;-84
2021/03/30 06:34:58;;;;;;;23.02;11.63;;;10.20;58.80;;;;;;1721856;83;21281;-83
2021/03/30 06:37:36;;;;;;;25.80;12.95;;;10.30;58.40;;;;;;1725090;83;21684;-80
2021/03/30 06:40:36;;;;;;;26.12;13.30;;;10.40;58.50;;;;;;1722350;83;21154;-83
2021/03/30 06:46:11;;;;;;;26.77;13.78;;;10.50;57.40;;;;;;1725032;83;21131;-82
2021/03/30 06:48:39;;;;;;;30.40;14.38;;;10.60;57.20;;;;;;1725092;83;21632;-78
2021/03/30 06:51:24;;;;;;;33.88;16.95;;;10.70;56.20;;;;;;1725192;82;21162;-80
2021/03/30 06:53:52;;;;;;;45.70;20.68;;;10.70;56.50;;;;;;1725074;83;21154;-80
2021/03/30 06:56:25;;;;;;;41.75;19.60;;;10.80;56.80;;;;;;1725416;83;21344;-79
2021/03/30 06:59:00;;;;;;;36.50;18.60;;;10.80;57.00;;;;;;1716036;83;21160;-77
2021/03/30 07:01:28;;;;;;;45.53;19.73;;;10.80;56.80;;;;;;1725540;83;21155;-79
2021/03/30 07:03:57;;;;;;;32.42;14.28;;;10.90;56.30;;;;;;1725048;83;21544;-79
2021/03/30 07:06:26;;;;;;;29.90;16.37;;;10.90;55.90;;;;;;1725015;83;21589;-80
2021/03/30 07:08:55;;;;;;;32.58;15.48;;;11.00;56.20;;;;;;1725507;83;21727;-86
2021/03/30 07:11:24;;;;;;;32.30;15.90;;;11.00;56.30;;;;;;1725230;82;21171;-85
2021/03/30 07:13:52;;;;;;;36.33;16.00;;;11.10;55.40;;;;;;1725304;83;21158;-86
2021/03/30 07:16:25;;;;;;;33.70;16.82;;;11.00;55.20;;;;;;1725530;83;21312;-84
2021/03/30 07:18:57;;;;;;;39.63;16.90;;;11.10;55.70;;;;;;1728653;81;21229;-84
2021/03/30 07:22:00;;;;;;;31.33;15.53;;;11.20;54.90;;;;;;1737898;82;21158;-87
2021/03/30 07:24:51;;;;;;;33.98;16.75;;;11.20;55.10;;;;;;1738205;82;21166;-81
2021/03/30 07:27:28;;;;;;;33.48;16.17;;;11.30;56.40;;;;;;1736596;82;21308;-80
2021/03/30 07:29:59;;;;;;;34.83;16.97;;;11.30;55.20;;;;;;1734912;82;21142;-79
2021/03/30 07:32:32;;;;;;;34.48;15.58;;;11.30;55.90;;;;;;1738116;82;21186;-79
2021/03/30 07:35:14;;;;;;;30.35;16.45;;;11.40;55.70;;;;;;1735265;82;21647;-80
2021/03/30 07:38:05;;;;;;;25.05;13.20;;;11.50;55.20;;;;;;1736252;82;21173;-84
2021/03/30 07:40:40;;;;;;;25.97;13.88;;;11.60;54.10;;;;;;1734529;82;21150;-84
2021/03/30 07:43:13;;;;;;;26.57;12.87;;;11.70;53.60;;;;;;1738313;82;21603;-78
2021/03/30 07:45:47;;;;;;;20.80;11.50;;;11.90;53.40;;;;;;1738075;82;21178;-81
2021/03/30 07:48:18;;;;;;;18.90;10.85;;;12.00;52.20;;;;;;1735334;82;21158;-81
2021/03/30 07:53:44;;;;;;;20.95;11.33;;;12.50;50.80;;;;;;1764045;79;22881;-82
2021/03/30 07:56:27;;;;;;;26.33;11.68;;;12.80;49.90;;;;;;1758375;80;21189;-83
2021/03/30 08:01:44;;;;;;;17.87;9.85;;;13.30;47.80;;;;;;1801034;77;38975;-82
2021/03/30 08:04:17;;;;;;;21.02;10.53;;;13.80;46.70;;;;;;1798764;78;21598;-79
2021/03/30 08:06:50;;;;;;;16.70;9.13;;;14.30;45.90;;;;;;1816358;79;21137;-83
2021/03/30 08:09:19;;;;;;;55.33;24.07;;;14.60;44.00;;;;;;1776655;81;21128;-84
2021/03/30 08:11:52;;;;;;;31.90;14.47;;;15.00;44.10;;;;;;1783604;78;21566;-84
2021/03/30 08:14:28;;;;;;;17.77;8.85;;;15.40;43.50;;;;;;1799153;79;21109;-85
2021/03/30 08:17:01;;;;;;;15.85;8.80;;;16.00;41.80;;;;;;1799863;79;21101;-83
2021/03/30 08:19:30;;;;;;;16.40;9.15;;;16.50;40.50;;;;;;1800325;79;21112;-80
2021/03/30 08:22:08;;;;;;;15.53;9.73;;;17.10;39.60;;;;;;1801106;79;21442;-81
2021/03/30 08:24:51;;;;;;;15.95;9.10;;;17.60;37.70;;;;;;1800841;79;21268;-70
2021/03/30 08:27:38;;;;;;;15.35;9.65;;;18.10;38.10;;;;;;1800072;79;21113;-69
2021/03/30 08:30:33;;;;;;;15.88;8.58;;;18.60;35.70;;;;;;1731105;81;21625;-70
2021/03/30 08:33:03;;;;;;;18.85;9.20;;;19.10;34.50;;;;;;1736106;81;21158;-72
2021/03/30 08:35:36;;;;;;;16.73;9.05;;;19.40;33.30;;;;;;1765318;80;21165;-71
2021/03/30 08:38:12;;;;;;;14.65;9.30;;;19.50;33.40;;;;;;1767412;80;21124;-72
2021/03/30 08:40:44;;;;;;;15.08;9.23;;;19.70;33.10;;;;;;1770648;80;21116;-70
2021/03/30 08:43:19;;;;;;;15.45;9.20;;;19.80;33.70;;;;;;1766693;81;21141;-72
2021/03/30 08:46:09;;;;;;;18.85;9.55;;;19.40;32.60;;;;;;1766881;80;21102;-73
2021/03/30 08:48:49;;;;;;;15.18;8.05;;;19.10;33.80;;;;;;1771877;80;21109;-74
2021/03/30 08:51:22;;;;;;;13.83;7.95;;;19.10;34.10;;;;;;1772929;80;21136;-70
2021/03/30 08:53:50;;;;;;;10.85;7.30;;;19.00;34.40;;;;;;1728145;82;21124;-71
2021/03/30 08:56:29;;;;;;;15.53;7.65;;;18.90;34.00;;;;;;1760821;81;21152;-70
2021/03/30 08:58:58;;;;;;;12.45;8.10;;;18.90;34.90;;;;;;1760626;81;21151;-71
2021/03/30 09:01:26;;;;;;;15.18;8.75;;;18.80;33.80;;;;;;1752138;81;21566;-71
2021/03/30 09:03:56;;;;;;;19.92;8.60;;;18.50;35.30;;;;;;1813671;79;21149;-72
2021/03/30 09:06:34;;;;;;;16.17;9.03;;;18.60;35.80;;;;;;1813060;79;21141;-70
2021/03/30 09:09:24;;;;;;;19.02;10.58;;;18.60;36.40;;;;;;1787402;80;21105;-69
2021/03/30 09:11:53;;;;;;;14.03;9.33;;;18.60;35.40;;;;;;1787243;80;21279;-70
2021/03/30 09:14:22;;;;;;;20.48;9.35;;;18.50;36.60;;;;;;1786832;80;21149;-71
2021/03/30 09:16:51;;;;;;;20.90;10.68;;;18.50;36.10;;;;;;1787487;80;21193;-71
2021/03/30 09:19:31;;;;;;;16.45;9.38;;;18.40;35.60;;;;;;1786656;80;21184;-71
2021/03/30 09:22:14;;;;;;;15.63;9.45;;;18.20;35.60;;;;;;1788334;80;21587;-70
2021/03/30 09:24:56;;;;;;;19.98;10.18;;;17.90;36.40;;;;;;1793247;79;21177;-70
2021/03/30 09:27:27;;;;;;;17.40;9.98;;;17.70;36.70;;;;;;1794489;79;21563;-71
2021/03/30 09:29:58;;;;;;;16.10;9.43;;;17.40;37.90;;;;;;1792546;79;21121;-71
2021/03/30 09:32:30;;;;;;;18.12;10.45;;;17.20;38.50;;;;;;1792083;79;21296;-70
2021/03/30 09:35:12;;;;;;;14.83;8.83;;;17.10;38.90;;;;;;1792650;79;21145;-69
2021/03/30 09:37:45;;;;;;;15.28;9.63;;;17.20;38.20;;;;;;1792205;80;21248;-70
2021/03/30 09:40:18;;;;;;;15.78;9.15;;;17.10;39.00;;;;;;1791962;79;21272;-69
2021/03/30 09:42:49;;;;;;;16.77;9.00;;;17.10;39.50;;;;;;1791772;80;21280;-70
2021/03/30 09:45:30;;;;;;;17.65;9.98;;;17.10;39.50;;;;;;1792217;79;21272;-70
2021/03/30 09:48:02;;;;;;;22.87;10.40;;;17.20;38.70;;;;;;1792034;80;21125;-72
2021/03/30 09:50:30;;;;;;;17.10;10.23;;;17.20;38.80;;;;;;1792350;80;21568;-72
2021/03/30 09:53:05;;;;;;;18.65;9.70;;;17.10;38.90;;;;;;1792085;80;21331;-73
2021/03/30 09:55:37;;;;;;;26.48;11.18;;;17.20;39.10;;;;;;1791929;79;21173;-72
2021/03/30 09:58:10;;;;;;;17.73;9.23;;;17.10;38.90;;;;;;1792126;79;21276;-72
2021/03/30 10:00:42;;;;;;;19.02;10.88;;;17.10;39.80;;;;;;1792161;79;21154;-73
2021/03/30 10:03:12;;;;;;;18.12;10.23;;;17.00;40.30;;;;;;1794029;79;21094;-73
2021/03/30 10:05:42;;;;;;;20.43;10.95;;;16.90;40.20;;;;;;1791516;79;21129;-75
2021/03/30 10:08:29;;;;;;;17.10;9.80;;;16.70;40.40;;;;;;1786861;80;21125;-74
2021/03/30 10:10:59;;;;;;;13.83;8.18;;;16.70;40.80;;;;;;1786794;80;21140;-73
2021/03/30 10:13:36;;;;;;;15.65;8.00;;;16.80;40.30;;;;;;1787090;80;21148;-78
2021/03/30 10:16:13;;;;;;;18.70;9.43;;;16.80;40.20;;;;;;1791345;80;21287;-73
2021/03/30 10:18:44;;;;;;;17.00;8.98;;;16.70;39.90;;;;;;1792040;79;21267;-75
2021/03/30 10:21:18;;;;;;;17.77;9.28;;;16.80;40.90;;;;;;1792140;79;21145;-74
2021/03/30 10:23:52;;;;;;;13.40;8.80;;;16.70;40.00;;;;;;1789497;80;21234;-73
2021/03/30 10:26:25;;;;;;;;;;;16.80;40.20;;;;;;1792129;80;21575;-73
2021/03/30 10:28:57;;;;;;;12.65;8.35;;;16.70;40.30;;;;;;1740201;82;20190;-73
2021/03/30 10:31:36;;;;;;;16.90;8.03;;;16.80;40.00;;;;;;1805607;79;22234;-72
2021/03/30 10:34:01;;;;;;;14.50;7.12;;;16.60;40.00;;;;;;1816991;79;21133;-75
2021/03/30 10:36:29;;;;;;;15.00;8.03;;;16.60;40.30;;;;;;1787088;80;21153;-73
2021/03/30 10:39:10;;;;;;;14.68;7.28;;;16.60;40.10;;;;;;1786766;80;21168;-73
2021/03/30 10:41:43;;;;;;;11.55;7.17;;;16.50;40.80;;;;;;1786510;80;21149;-73
2021/03/30 10:44:17;;;;;;;15.28;6.00;;;16.50;41.00;;;;;;1786954;79;21564;-71
2021/03/30 10:46:49;;;;;;;11.60;6.67;;;16.40;40.50;;;;;;1787069;80;21129;-73
2021/03/30 10:49:17;;;;;;;14.85;6.67;;;16.30;40.60;;;;;;1786675;80;21137;-73
2021/03/30 10:51:46;;;;;;;13.72;6.85;;;16.30;40.90;;;;;;1810023;79;21125;-72
2021/03/30 10:54:15;;;;;;;17.80;7.97;;;16.30;41.90;;;;;;1819019;79;21161;-73
2021/03/30 10:56:45;;;;;;;14.75;6.78;;;16.40;41.00;;;;;;1792166;79;21263;-72
2021/03/30 10:59:17;;;;;;;13.45;6.65;;;16.40;41.40;;;;;;1792148;79;21336;-73
2021/03/30 11:01:45;;;;;;;11.53;6.83;;;16.40;41.20;;;;;;1794370;79;21595;-73
2021/03/30 11:04:12;;;;;;;11.75;6.80;;;16.40;40.90;;;;;;1796055;79;21599;-75
2021/03/30 11:06:42;;;;;;;13.25;6.35;;;16.30;40.30;;;;;;1795865;79;21145;-72
2021/03/30 11:09:09;;;;;;;16.30;6.80;;;16.30;40.40;;;;;;1796272;78;21089;-72
2021/03/30 11:11:37;;;;;;;11.00;6.08;;;16.30;41.00;;;;;;1769442;80;21137;-72
2021/03/30 11:14:06;;;;;;;9.38;6.22;;;16.40;40.40;;;;;;1796080;78;21122;-72
2021/03/30 11:16:34;;;;;;;10.20;5.85;;;16.40;40.60;;;;;;1795954;80;21145;-74
2021/03/30 11:19:03;;;;;;;10.95;6.30;;;16.30;40.80;;;;;;1795988;79;21591;-73
2021/03/30 11:21:31;;;;;;;12.90;6.65;;;16.30;40.90;;;;;;1797267;78;21148;-71
2021/03/30 11:24:00;;;;;;;11.50;6.33;;;16.30;41.50;;;;;;1809321;78;21539;-73
2021/03/30 11:26:28;;;;;;;14.18;6.40;;;16.30;40.90;;;;;;1808942;78;21168;-72
2021/03/30 11:28:57;;;;;;;21.17;8.28;;;16.30;40.90;;;;;;1797962;78;21085;-74
2021/03/30 11:34:07;;;;;;;13.10;7.22;;;16.30;40.90;;;;;;1795975;78;21141;-74
2021/03/30 11:36:27;;;;;;;12.10;6.30;;;16.00;41.70;;;;;;1817008;78;21128;-75
2021/03/30 11:38:54;;;;;;;12.15;6.37;;;15.90;41.40;;;;;;1796299;78;21164;-76
2021/03/30 11:41:22;;;;;;;14.33;6.67;;;15.90;42.10;;;;;;1795741;79;21196;-75
2021/03/30 11:43:49;;;;;;;13.10;6.50;;;16.00;42.20;;;;;;1796313;78;21258;-72
2021/03/30 11:46:17;;;;;;;13.28;6.15;;;16.00;42.30;;;;;;1796134;79;21291;-73
2021/03/30 11:48:45;;;;;;;12.68;6.40;;;16.00;41.50;;;;;;1795866;79;21133;-73
2021/03/30 11:51:12;;;;;;;9.53;5.12;;;16.10;42.00;;;;;;1796276;79;21323;-74
2021/03/30 11:53:44;;;;;;;10.93;5.12;;;16.20;42.50;;;;;;1795821;79;21154;-73
2021/03/30 11:56:10;;;;;;;8.40;4.42;;;16.30;42.60;;;;;;1795514;79;21125;-74
2021/03/30 11:58:38;;;;;;;10.00;4.78;;;16.40;42.40;;;;;;1803110;78;21155;-70
2021/03/30 12:01:07;;;;;;;8.20;4.80;;;16.50;42.70;;;;;;1809207;78;21191;-71
2021/03/30 12:03:37;;;;;;;9.28;4.55;;;16.50;42.20;;;;;;1796905;79;21638;-72
2021/03/30 12:06:06;;;;;;;9.85;4.42;;;16.50;41.70;;;;;;1793740;80;21318;-71
2021/03/30 12:08:35;;;;;;;8.38;4.60;;;16.40;42.30;;;;;;1792903;80;21538;-73
2021/03/30 12:11:04;;;;;;;9.30;4.70;;;16.50;42.30;;;;;;1797419;79;21132;-73
2021/03/30 12:13:31;;;;;;;9.03;3.87;;;16.60;42.80;;;;;;1797774;79;21149;-72
2021/03/30 12:15:59;;;;;;;8.70;3.95;;;16.70;42.00;;;;;;1797633;79;21136;-73
2021/03/30 12:18:28;;;;;;;10.32;4.70;;;16.60;41.40;;;;;;1797868;79;21125;-72
2021/03/30 12:20:56;;;;;;;6.78;3.10;;;16.70;42.40;;;;;;1792263;80;21635;-72
2021/03/30 12:23:23;;;;;;;6.55;3.22;;;16.60;42.50;;;;;;1792123;80;21298;-72
2021/03/30 12:25:53;;;;;;;5.92;3.02;;;16.70;43.30;;;;;;1792264;80;21590;-72
2021/03/30 12:28:22;;;;;;;5.25;3.27;;;16.70;42.80;;;;;;1793054;79;21556;-72
2021/03/30 12:30:50;;;;;;;8.25;3.60;;;16.80;42.70;;;;;;1794049;79;21174;-73
2021/03/30 12:33:19;;;;;;;10.08;4.05;;;16.80;42.30;;;;;;1796819;79;21295;-72
2021/03/30 12:35:47;;;;;;;6.40;3.33;;;16.80;42.10;;;;;;1793845;79;21702;-74
2021/03/30 12:38:15;;;;;;;5.87;3.17;;;16.80;42.10;;;;;;1794591;80;21560;-72
2021/03/30 12:40:43;;;;;;;10.28;4.08;;;16.80;41.80;;;;;;1792873;78;21597;-67
2021/03/30 12:43:11;;;;;;;6.75;3.62;;;16.90;41.90;;;;;;1800725;79;22225;-67
2021/03/30 12:45:39;;;;;;;8.88;3.80;;;17.00;42.30;;;;;;1797080;79;21255;-70
2021/03/30 12:48:09;;;;;;;7.70;3.70;;;17.00;41.70;;;;;;1793803;80;21146;-70
2021/03/30 12:50:37;;;;;;;7.40;3.67;;;17.00;41.80;;;;;;1800273;78;21107;-67
2021/03/30 12:53:06;;;;;;;6.28;3.30;;;17.00;41.70;;;;;;1802298;79;21539;-69
2021/03/30 12:55:35;;;;;;;7.67;3.55;;;16.80;41.70;;;;;;1798038;78;21528;-69
2021/03/30 12:58:02;;;;;;;6.58;3.55;;;16.80;42.00;;;;;;1801510;79;21140;-70
2021/03/30 13:00:30;;;;;;;7.72;3.60;;;16.90;41.90;;;;;;1793447;79;21136;-70
2021/03/30 13:02:59;;;;;;;7.00;3.80;;;16.90;41.80;;;;;;1799063;79;21141;-70
2021/03/30 13:05:27;;;;;;;6.42;3.47;;;17.00;41.90;;;;;;1789342;80;21121;-71
2021/03/30 13:07:55;;;;;;;7.22;3.37;;;17.10;41.60;;;;;;1790639;79;21145;-69
2021/03/30 13:10:22;;;;;;;6.30;3.52;;;17.00;41.80;;;;;;1792876;79;21131;-70
2021/03/30 13:12:50;;;;;;;8.73;3.30;;;17.00;42.30;;;;;;1787301;79;21184;-70
2021/03/30 13:15:19;;;;;;;7.08;3.20;;;17.00;42.30;;;;;;1787868;80;21157;-70
2021/03/30 13:17:49;;;;;;;6.65;3.40;;;17.00;42.10;;;;;;1803604;79;21149;-72